sensor_id;sensor_type;location;lat;lon;timestamp;P1;durP1;ratioP1;P2;durP2;ratioP2
45198;SDS011;30941;46.422;18.772;2022-07-22T00:01:38;6.13;;;3.00;;
45198;SDS011;30941;46.422;18.772;2022-07-22T00:04:04;6.60;;;2.92;;
45198;SDS011;30941;46.422;18.772;2022-07-22T00:06:29;5.45;;;3.22;;
45198;SDS011;30941;46.422;18.772;2022-07-22T00:08:55;6.82;;;3.22;;
45198;SDS011;30941;46.422;18.772;2022-07-22T00:11:21;5.65;;;3.30;;
45198;SDS011;30941;46.422;18.772;2022-07-22T00:13:47;4.68;;;3.22;;
45198;SDS011;30941;46.422;18.772;2022-07-22T00:16:13;7.00;;;3.33;;
45198;SDS011;30941;46.422;18.772;2022-07-22T00:18:39;4.63;;;2.80;;
45198;SDS011;30941;46.422;18.772;2022-07-22T00:21:04;7.55;;;2.95;;
45198;SDS011;30941;46.422;18.772;2022-07-22T00:23:30;6.05;;;3.58;;
45198;SDS011;30941;46.422;18.772;2022-07-22T00:25:55;7.35;;;3.25;;
45198;SDS011;30941;46.422;18.772;2022-07-22T00:28:21;8.73;;;3.30;;
45198;SDS011;30941;46.422;18.772;2022-07-22T00:30:46;6.05;;;3.13;;
45198;SDS011;30941;46.422;18.772;2022-07-22T00:33:12;11.55;;;3.42;;
45198;SDS011;30941;46.422;18.772;2022-07-22T00:35:37;5.18;;;3.40;;
45198;SDS011;30941;46.422;18.772;2022-07-22T00:38:03;5.75;;;3.10;;
45198;SDS011;30941;46.422;18.772;2022-07-22T00:40:28;6.68;;;3.10;;
45198;SDS011;30941;46.422;18.772;2022-07-22T00:42:54;6.20;;;3.08;;
45198;SDS011;30941;46.422;18.772;2022-07-22T00:45:19;4.63;;;2.90;;
45198;SDS011;30941;46.422;18.772;2022-07-22T00:47:45;6.03;;;3.45;;
45198;SDS011;30941;46.422;18.772;2022-07-22T00:50:10;4.80;;;3.17;;
45198;SDS011;30941;46.422;18.772;2022-07-22T00:52:36;10.70;;;3.30;;
45198;SDS011;30941;46.422;18.772;2022-07-22T00:55:03;5.18;;;3.10;;
45198;SDS011;30941;46.422;18.772;2022-07-22T00:57:29;5.03;;;2.83;;
45198;SDS011;30941;46.422;18.772;2022-07-22T00:59:55;4.78;;;3.25;;
45198;SDS011;30941;46.422;18.772;2022-07-22T01:02:21;6.68;;;2.97;;
45198;SDS011;30941;46.422;18.772;2022-07-22T01:04:46;5.68;;;3.47;;
45198;SDS011;30941;46.422;18.772;2022-07-22T01:07:12;6.88;;;3.40;;
45198;SDS011;30941;46.422;18.772;2022-07-22T01:09:37;8.88;;;2.90;;
45198;SDS011;30941;46.422;18.772;2022-07-22T01:12:03;7.65;;;3.15;;
45198;SDS011;30941;46.422;18.772;2022-07-22T01:14:28;6.07;;;3.47;;
45198;SDS011;30941;46.422;18.772;2022-07-22T01:16:54;6.60;;;3.45;;
45198;SDS011;30941;46.422;18.772;2022-07-22T01:19:20;6.60;;;3.45;;
45198;SDS011;30941;46.422;18.772;2022-07-22T01:21:45;5.97;;;3.65;;
45198;SDS011;30941;46.422;18.772;2022-07-22T01:24:10;6.50;;;3.58;;
45198;SDS011;30941;46.422;18.772;2022-07-22T01:26:36;5.57;;;3.45;;
45198;SDS011;30941;46.422;18.772;2022-07-22T01:29:02;7.00;;;3.30;;
45198;SDS011;30941;46.422;18.772;2022-07-22T01:31:28;6.55;;;3.28;;
45198;SDS011;30941;46.422;18.772;2022-07-22T01:33:54;4.38;;;3.28;;
45198;SDS011;30941;46.422;18.772;2022-07-22T01:36:19;6.05;;;3.47;;
45198;SDS011;30941;46.422;18.772;2022-07-22T01:38:45;7.40;;;3.35;;
45198;SDS011;30941;46.422;18.772;2022-07-22T01:41:10;5.32;;;3.50;;
45198;SDS011;30941;46.422;18.772;2022-07-22T01:43:36;5.05;;;3.45;;
45198;SDS011;30941;46.422;18.772;2022-07-22T01:46:01;8.55;;;3.13;;
45198;SDS011;30941;46.422;18.772;2022-07-22T01:48:27;5.97;;;3.20;;
45198;SDS011;30941;46.422;18.772;2022-07-22T01:50:53;10.88;;;3.40;;
45198;SDS011;30941;46.422;18.772;2022-07-22T01:53:19;5.72;;;3.00;;
45198;SDS011;30941;46.422;18.772;2022-07-22T01:55:44;8.35;;;3.47;;
45198;SDS011;30941;46.422;18.772;2022-07-22T01:58:10;5.57;;;3.58;;
45198;SDS011;30941;46.422;18.772;2022-07-22T02:00:35;6.57;;;3.47;;
45198;SDS011;30941;46.422;18.772;2022-07-22T02:03:01;7.43;;;4.03;;
45198;SDS011;30941;46.422;18.772;2022-07-22T02:05:27;7.88;;;3.15;;
45198;SDS011;30941;46.422;18.772;2022-07-22T02:07:53;5.55;;;3.25;;
45198;SDS011;30941;46.422;18.772;2022-07-22T02:10:18;5.53;;;3.67;;
45198;SDS011;30941;46.422;18.772;2022-07-22T02:12:43;8.02;;;3.50;;
45198;SDS011;30941;46.422;18.772;2022-07-22T02:15:09;4.70;;;3.00;;
45198;SDS011;30941;46.422;18.772;2022-07-22T02:17:35;4.97;;;3.75;;
45198;SDS011;30941;46.422;18.772;2022-07-22T02:20:02;6.38;;;3.10;;
45198;SDS011;30941;46.422;18.772;2022-07-22T02:22:28;7.20;;;3.28;;
45198;SDS011;30941;46.422;18.772;2022-07-22T02:24:54;7.63;;;3.20;;
45198;SDS011;30941;46.422;18.772;2022-07-22T02:27:19;8.18;;;4.10;;
45198;SDS011;30941;46.422;18.772;2022-07-22T02:29:45;5.40;;;3.15;;
45198;SDS011;30941;46.422;18.772;2022-07-22T02:32:10;5.25;;;3.50;;
45198;SDS011;30941;46.422;18.772;2022-07-22T02:34:36;6.60;;;3.67;;
45198;SDS011;30941;46.422;18.772;2022-07-22T02:37:01;5.97;;;3.38;;
45198;SDS011;30941;46.422;18.772;2022-07-22T02:39:27;8.07;;;3.20;;
45198;SDS011;30941;46.422;18.772;2022-07-22T02:41:52;5.00;;;3.47;;
45198;SDS011;30941;46.422;18.772;2022-07-22T02:44:17;7.32;;;3.33;;
45198;SDS011;30941;46.422;18.772;2022-07-22T02:46:43;6.78;;;3.55;;
45198;SDS011;30941;46.422;18.772;2022-07-22T02:49:09;8.50;;;4.00;;
45198;SDS011;30941;46.422;18.772;2022-07-22T02:51:34;5.10;;;3.20;;
45198;SDS011;30941;46.422;18.772;2022-07-22T02:54:00;8.63;;;4.25;;
45198;SDS011;30941;46.422;18.772;2022-07-22T02:56:25;11.50;;;3.72;;
45198;SDS011;30941;46.422;18.772;2022-07-22T02:58:50;5.03;;;3.13;;
45198;SDS011;30941;46.422;18.772;2022-07-22T03:01:17;4.38;;;3.10;;
45198;SDS011;30941;46.422;18.772;2022-07-22T03:03:43;9.27;;;3.53;;
45198;SDS011;30941;46.422;18.772;2022-07-22T03:06:08;7.90;;;3.45;;
45198;SDS011;30941;46.422;18.772;2022-07-22T03:08:34;5.38;;;3.55;;
45198;SDS011;30941;46.422;18.772;2022-07-22T03:10:59;6.10;;;3.42;;
45198;SDS011;30941;46.422;18.772;2022-07-22T03:13:25;7.13;;;3.28;;
45198;SDS011;30941;46.422;18.772;2022-07-22T03:15:50;6.78;;;4.45;;
45198;SDS011;30941;46.422;18.772;2022-07-22T03:18:16;5.97;;;3.40;;
45198;SDS011;30941;46.422;18.772;2022-07-22T03:20:41;8.75;;;4.05;;
45198;SDS011;30941;46.422;18.772;2022-07-22T03:23:06;4.80;;;3.28;;
45198;SDS011;30941;46.422;18.772;2022-07-22T03:25:32;8.98;;;3.85;;
45198;SDS011;30941;46.422;18.772;2022-07-22T03:27:57;4.78;;;3.20;;
45198;SDS011;30941;46.422;18.772;2022-07-22T03:30:23;5.50;;;3.97;;
45198;SDS011;30941;46.422;18.772;2022-07-22T03:32:48;6.85;;;3.28;;
45198;SDS011;30941;46.422;18.772;2022-07-22T03:35:14;8.30;;;3.80;;
45198;SDS011;30941;46.422;18.772;2022-07-22T03:37:40;9.15;;;3.78;;
45198;SDS011;30941;46.422;18.772;2022-07-22T03:40:06;9.70;;;3.70;;
45198;SDS011;30941;46.422;18.772;2022-07-22T03:42:32;6.43;;;3.30;;
45198;SDS011;30941;46.422;18.772;2022-07-22T03:44:58;7.45;;;4.05;;
45198;SDS011;30941;46.422;18.772;2022-07-22T03:47:23;11.68;;;4.65;;
45198;SDS011;30941;46.422;18.772;2022-07-22T03:49:49;6.28;;;3.85;;
45198;SDS011;30941;46.422;18.772;2022-07-22T03:52:15;10.73;;;4.32;;
45198;SDS011;30941;46.422;18.772;2022-07-22T03:54:41;13.05;;;3.85;;
45198;SDS011;30941;46.422;18.772;2022-07-22T03:57:07;9.70;;;3.58;;
45198;SDS011;30941;46.422;18.772;2022-07-22T03:59:33;9.35;;;3.83;;
45198;SDS011;30941;46.422;18.772;2022-07-22T04:01:58;6.53;;;3.53;;
45198;SDS011;30941;46.422;18.772;2022-07-22T04:04:24;9.38;;;4.07;;
45198;SDS011;30941;46.422;18.772;2022-07-22T04:06:49;5.88;;;3.95;;
45198;SDS011;30941;46.422;18.772;2022-07-22T04:09:16;12.48;;;4.00;;
45198;SDS011;30941;46.422;18.772;2022-07-22T04:11:42;7.22;;;4.05;;
45198;SDS011;30941;46.422;18.772;2022-07-22T04:14:08;6.65;;;3.90;;
45198;SDS011;30941;46.422;18.772;2022-07-22T04:16:33;9.20;;;3.75;;
45198;SDS011;30941;46.422;18.772;2022-07-22T04:19:00;5.72;;;3.75;;
45198;SDS011;30941;46.422;18.772;2022-07-22T04:21:26;8.80;;;3.83;;
45198;SDS011;30941;46.422;18.772;2022-07-22T04:23:52;9.40;;;4.22;;
45198;SDS011;30941;46.422;18.772;2022-07-22T04:26:17;6.60;;;3.80;;
45198;SDS011;30941;46.422;18.772;2022-07-22T04:28:43;6.05;;;3.88;;
45198;SDS011;30941;46.422;18.772;2022-07-22T04:31:09;6.40;;;3.58;;
45198;SDS011;30941;46.422;18.772;2022-07-22T04:33:34;11.90;;;4.50;;
45198;SDS011;30941;46.422;18.772;2022-07-22T04:36:00;9.50;;;4.00;;
45198;SDS011;30941;46.422;18.772;2022-07-22T04:38:25;5.85;;;3.63;;
45198;SDS011;30941;46.422;18.772;2022-07-22T04:40:50;9.30;;;4.38;;
45198;SDS011;30941;46.422;18.772;2022-07-22T04:43:16;6.50;;;3.47;;
45198;SDS011;30941;46.422;18.772;2022-07-22T04:45:41;9.85;;;4.28;;
45198;SDS011;30941;46.422;18.772;2022-07-22T04:48:07;11.90;;;4.15;;
45198;SDS011;30941;46.422;18.772;2022-07-22T04:50:32;18.55;;;5.03;;
45198;SDS011;30941;46.422;18.772;2022-07-22T04:52:57;7.03;;;4.05;;
45198;SDS011;30941;46.422;18.772;2022-07-22T04:55:23;10.35;;;4.00;;
45198;SDS011;30941;46.422;18.772;2022-07-22T04:57:48;6.38;;;3.88;;
45198;SDS011;30941;46.422;18.772;2022-07-22T05:00:14;8.05;;;3.72;;
45198;SDS011;30941;46.422;18.772;2022-07-22T05:02:41;6.60;;;3.55;;
45198;SDS011;30941;46.422;18.772;2022-07-22T05:05:06;6.03;;;3.75;;
45198;SDS011;30941;46.422;18.772;2022-07-22T05:07:32;17.30;;;4.43;;
45198;SDS011;30941;46.422;18.772;2022-07-22T05:09:57;8.48;;;3.72;;
45198;SDS011;30941;46.422;18.772;2022-07-22T05:12:23;12.57;;;3.80;;
45198;SDS011;30941;46.422;18.772;2022-07-22T05:14:48;14.15;;;4.05;;
45198;SDS011;30941;46.422;18.772;2022-07-22T05:17:14;6.13;;;3.65;;
45198;SDS011;30941;46.422;18.772;2022-07-22T05:19:39;8.35;;;3.58;;
45198;SDS011;30941;46.422;18.772;2022-07-22T05:22:06;11.30;;;4.40;;
45198;SDS011;30941;46.422;18.772;2022-07-22T05:24:32;6.55;;;3.60;;
45198;SDS011;30941;46.422;18.772;2022-07-22T05:26:57;8.95;;;3.88;;
45198;SDS011;30941;46.422;18.772;2022-07-22T05:29:23;6.50;;;3.33;;
45198;SDS011;30941;46.422;18.772;2022-07-22T05:31:48;9.48;;;3.10;;
45198;SDS011;30941;46.422;18.772;2022-07-22T05:34:14;5.72;;;3.13;;
45198;SDS011;30941;46.422;18.772;2022-07-22T05:36:39;4.88;;;3.00;;
45198;SDS011;30941;46.422;18.772;2022-07-22T05:39:05;8.75;;;2.90;;
45198;SDS011;30941;46.422;18.772;2022-07-22T05:41:30;6.78;;;2.70;;
45198;SDS011;30941;46.422;18.772;2022-07-22T05:43:55;7.65;;;3.10;;
45198;SDS011;30941;46.422;18.772;2022-07-22T05:46:21;7.68;;;2.90;;
45198;SDS011;30941;46.422;18.772;2022-07-22T05:48:47;6.63;;;2.50;;
45198;SDS011;30941;46.422;18.772;2022-07-22T05:51:12;5.53;;;2.53;;
45198;SDS011;30941;46.422;18.772;2022-07-22T05:53:39;13.50;;;2.88;;
45198;SDS011;30941;46.422;18.772;2022-07-22T05:56:05;8.00;;;2.45;;
45198;SDS011;30941;46.422;18.772;2022-07-22T05:58:31;4.95;;;2.60;;
45198;SDS011;30941;46.422;18.772;2022-07-22T06:00:56;3.70;;;2.63;;
45198;SDS011;30941;46.422;18.772;2022-07-22T06:03:23;4.85;;;2.53;;
45198;SDS011;30941;46.422;18.772;2022-07-22T06:05:49;6.15;;;3.03;;
45198;SDS011;30941;46.422;18.772;2022-07-22T06:08:14;5.88;;;3.25;;
45198;SDS011;30941;46.422;18.772;2022-07-22T06:10:40;4.05;;;2.47;;
45198;SDS011;30941;46.422;18.772;2022-07-22T06:13:05;8.93;;;2.72;;
45198;SDS011;30941;46.422;18.772;2022-07-22T06:15:31;11.05;;;2.83;;
45198;SDS011;30941;46.422;18.772;2022-07-22T06:17:56;5.97;;;2.72;;
45198;SDS011;30941;46.422;18.772;2022-07-22T06:20:22;6.43;;;2.92;;
45198;SDS011;30941;46.422;18.772;2022-07-22T06:22:47;12.25;;;2.80;;
45198;SDS011;30941;46.422;18.772;2022-07-22T06:25:13;4.93;;;2.67;;
45198;SDS011;30941;46.422;18.772;2022-07-22T06:27:38;6.78;;;2.83;;
45198;SDS011;30941;46.422;18.772;2022-07-22T06:30:04;5.97;;;2.92;;
45198;SDS011;30941;46.422;18.772;2022-07-22T06:32:30;5.55;;;2.72;;
45198;SDS011;30941;46.422;18.772;2022-07-22T06:34:55;6.75;;;2.70;;
45198;SDS011;30941;46.422;18.772;2022-07-22T06:37:22;4.22;;;2.38;;
45198;SDS011;30941;46.422;18.772;2022-07-22T06:39:47;5.65;;;2.25;;
45198;SDS011;30941;46.422;18.772;2022-07-22T06:42:13;8.23;;;2.45;;
45198;SDS011;30941;46.422;18.772;2022-07-22T06:44:39;5.53;;;2.58;;
45198;SDS011;30941;46.422;18.772;2022-07-22T06:47:04;7.50;;;2.85;;
45198;SDS011;30941;46.422;18.772;2022-07-22T06:49:30;4.90;;;2.65;;
45198;SDS011;30941;46.422;18.772;2022-07-22T06:51:55;6.15;;;3.20;;
45198;SDS011;30941;46.422;18.772;2022-07-22T06:54:21;8.23;;;2.15;;
45198;SDS011;30941;46.422;18.772;2022-07-22T06:56:46;8.63;;;2.30;;
45198;SDS011;30941;46.422;18.772;2022-07-22T06:59:11;8.65;;;2.50;;
45198;SDS011;30941;46.422;18.772;2022-07-22T07:01:37;8.18;;;3.08;;
45198;SDS011;30941;46.422;18.772;2022-07-22T07:04:02;5.35;;;2.30;;
45198;SDS011;30941;46.422;18.772;2022-07-22T07:06:28;8.15;;;2.85;;
45198;SDS011;30941;46.422;18.772;2022-07-22T07:08:54;7.40;;;2.40;;
45198;SDS011;30941;46.422;18.772;2022-07-22T07:11:19;7.07;;;2.38;;
45198;SDS011;30941;46.422;18.772;2022-07-22T07:13:45;5.93;;;2.47;;
45198;SDS011;30941;46.422;18.772;2022-07-22T07:16:10;8.73;;;2.63;;
45198;SDS011;30941;46.422;18.772;2022-07-22T07:18:36;6.40;;;2.42;;
45198;SDS011;30941;46.422;18.772;2022-07-22T07:21:03;7.25;;;2.80;;
45198;SDS011;30941;46.422;18.772;2022-07-22T07:23:29;8.88;;;2.67;;
45198;SDS011;30941;46.422;18.772;2022-07-22T07:25:54;4.70;;;2.05;;
45198;SDS011;30941;46.422;18.772;2022-07-22T07:28:20;4.88;;;2.45;;
45198;SDS011;30941;46.422;18.772;2022-07-22T07:30:45;6.97;;;3.15;;
45198;SDS011;30941;46.422;18.772;2022-07-22T07:33:11;6.30;;;2.60;;
45198;SDS011;30941;46.422;18.772;2022-07-22T07:35:37;5.05;;;2.05;;
45198;SDS011;30941;46.422;18.772;2022-07-22T07:38:02;3.55;;;2.47;;
45198;SDS011;30941;46.422;18.772;2022-07-22T07:40:28;4.65;;;2.15;;
45198;SDS011;30941;46.422;18.772;2022-07-22T07:42:53;5.78;;;2.22;;
45198;SDS011;30941;46.422;18.772;2022-07-22T07:45:19;3.50;;;2.20;;
45198;SDS011;30941;46.422;18.772;2022-07-22T07:47:44;8.15;;;2.30;;
45198;SDS011;30941;46.422;18.772;2022-07-22T07:50:10;3.85;;;2.25;;
45198;SDS011;30941;46.422;18.772;2022-07-22T07:52:40;3.38;;;2.28;;
45198;SDS011;30941;46.422;18.772;2022-07-22T07:55:07;4.93;;;2.28;;
45198;SDS011;30941;46.422;18.772;2022-07-22T07:57:33;5.47;;;2.03;;
45198;SDS011;30941;46.422;18.772;2022-07-22T07:59:59;5.18;;;2.20;;
45198;SDS011;30941;46.422;18.772;2022-07-22T08:02:24;3.53;;;2.00;;
45198;SDS011;30941;46.422;18.772;2022-07-22T08:04:50;6.25;;;2.22;;
45198;SDS011;30941;46.422;18.772;2022-07-22T08:07:15;3.42;;;2.08;;
45198;SDS011;30941;46.422;18.772;2022-07-22T08:09:41;4.65;;;2.28;;
45198;SDS011;30941;46.422;18.772;2022-07-22T08:12:06;5.28;;;2.00;;
45198;SDS011;30941;46.422;18.772;2022-07-22T08:14:32;4.35;;;2.15;;
45198;SDS011;30941;46.422;18.772;2022-07-22T08:16:57;2.85;;;2.03;;
45198;SDS011;30941;46.422;18.772;2022-07-22T08:19:23;3.28;;;2.20;;
45198;SDS011;30941;46.422;18.772;2022-07-22T08:21:49;5.03;;;2.20;;
45198;SDS011;30941;46.422;18.772;2022-07-22T08:24:14;2.88;;;2.38;;
45198;SDS011;30941;46.422;18.772;2022-07-22T08:26:40;4.45;;;2.10;;
45198;SDS011;30941;46.422;18.772;2022-07-22T08:29:05;6.45;;;2.10;;
45198;SDS011;30941;46.422;18.772;2022-07-22T08:31:32;2.47;;;1.95;;
45198;SDS011;30941;46.422;18.772;2022-07-22T08:34:00;3.75;;;1.92;;
45198;SDS011;30941;46.422;18.772;2022-07-22T08:36:28;2.70;;;2.00;;
45198;SDS011;30941;46.422;18.772;2022-07-22T08:38:54;7.15;;;2.30;;
45198;SDS011;30941;46.422;18.772;2022-07-22T08:41:20;5.32;;;2.08;;
45198;SDS011;30941;46.422;18.772;2022-07-22T08:43:47;4.47;;;1.90;;
45198;SDS011;30941;46.422;18.772;2022-07-22T08:46:12;5.53;;;2.42;;
45198;SDS011;30941;46.422;18.772;2022-07-22T08:48:38;3.30;;;2.05;;
45198;SDS011;30941;46.422;18.772;2022-07-22T08:51:04;2.00;;;1.80;;
45198;SDS011;30941;46.422;18.772;2022-07-22T08:53:30;5.68;;;2.65;;
45198;SDS011;30941;46.422;18.772;2022-07-22T08:55:56;2.83;;;2.40;;
45198;SDS011;30941;46.422;18.772;2022-07-22T08:58:21;5.10;;;2.08;;
45198;SDS011;30941;46.422;18.772;2022-07-22T09:00:49;5.15;;;2.10;;
45198;SDS011;30941;46.422;18.772;2022-07-22T09:03:29;2.83;;;1.90;;
45198;SDS011;30941;46.422;18.772;2022-07-22T09:05:54;4.05;;;2.25;;
45198;SDS011;30941;46.422;18.772;2022-07-22T09:08:20;4.55;;;2.28;;
45198;SDS011;30941;46.422;18.772;2022-07-22T09:10:46;2.20;;;1.88;;
45198;SDS011;30941;46.422;18.772;2022-07-22T09:13:13;2.20;;;1.70;;
45198;SDS011;30941;46.422;18.772;2022-07-22T09:15:50;3.50;;;2.10;;
45198;SDS011;30941;46.422;18.772;2022-07-22T09:18:17;2.05;;;1.90;;
45198;SDS011;30941;46.422;18.772;2022-07-22T09:20:42;3.60;;;2.30;;
45198;SDS011;30941;46.422;18.772;2022-07-22T09:23:16;3.05;;;2.08;;
45198;SDS011;30941;46.422;18.772;2022-07-22T09:25:45;3.60;;;1.90;;
45198;SDS011;30941;46.422;18.772;2022-07-22T09:28:12;6.13;;;2.20;;
45198;SDS011;30941;46.422;18.772;2022-07-22T09:30:52;2.92;;;2.00;;
45198;SDS011;30941;46.422;18.772;2022-07-22T09:33:19;2.53;;;1.95;;
45198;SDS011;30941;46.422;18.772;2022-07-22T09:35:45;2.88;;;1.98;;
45198;SDS011;30941;46.422;18.772;2022-07-22T09:38:12;2.80;;;2.08;;
45198;SDS011;30941;46.422;18.772;2022-07-22T09:40:42;2.47;;;2.17;;
45198;SDS011;30941;46.422;18.772;2022-07-22T09:43:13;3.95;;;2.00;;
45198;SDS011;30941;46.422;18.772;2022-07-22T09:48:15;5.85;;;2.42;;
45198;SDS011;30941;46.422;18.772;2022-07-22T09:50:43;7.53;;;2.13;;
45198;SDS011;30941;46.422;18.772;2022-07-22T09:53:08;4.20;;;2.30;;
45198;SDS011;30941;46.422;18.772;2022-07-22T09:55:34;6.68;;;2.50;;
45198;SDS011;30941;46.422;18.772;2022-07-22T09:58:03;3.53;;;2.25;;
45198;SDS011;30941;46.422;18.772;2022-07-22T10:00:28;4.15;;;2.00;;
45198;SDS011;30941;46.422;18.772;2022-07-22T10:02:58;3.67;;;2.15;;
45198;SDS011;30941;46.422;18.772;2022-07-22T10:05:28;4.57;;;2.20;;
45198;SDS011;30941;46.422;18.772;2022-07-22T10:07:56;4.40;;;2.10;;
45198;SDS011;30941;46.422;18.772;2022-07-22T10:10:23;2.95;;;1.92;;
45198;SDS011;30941;46.422;18.772;2022-07-22T10:12:51;2.85;;;2.03;;
45198;SDS011;30941;46.422;18.772;2022-07-22T10:15:19;2.25;;;2.05;;
45198;SDS011;30941;46.422;18.772;2022-07-22T10:17:46;3.63;;;2.20;;
45198;SDS011;30941;46.422;18.772;2022-07-22T10:20:19;2.17;;;1.98;;
45198;SDS011;30941;46.422;18.772;2022-07-22T10:22:50;2.40;;;2.20;;
45198;SDS011;30941;46.422;18.772;2022-07-22T10:25:18;3.10;;;1.88;;
45198;SDS011;30941;46.422;18.772;2022-07-22T10:28:19;4.32;;;2.00;;
45198;SDS011;30941;46.422;18.772;2022-07-22T10:30:37;2.40;;;2.03;;
45198;SDS011;30941;46.422;18.772;2022-07-22T10:33:12;4.68;;;2.10;;
45198;SDS011;30941;46.422;18.772;2022-07-22T10:35:59;3.13;;;1.90;;
45198;SDS011;30941;46.422;18.772;2022-07-22T10:38:26;3.65;;;1.85;;
45198;SDS011;30941;46.422;18.772;2022-07-22T10:41:00;2.00;;;1.80;;
45198;SDS011;30941;46.422;18.772;2022-07-22T10:45:55;2.22;;;1.92;;
45198;SDS011;30941;46.422;18.772;2022-07-22T10:48:25;5.35;;;2.05;;
45198;SDS011;30941;46.422;18.772;2022-07-22T11:01:22;3.15;;;2.03;;
45198;SDS011;30941;46.422;18.772;2022-07-22T11:03:50;3.60;;;1.88;;
45198;SDS011;30941;46.422;18.772;2022-07-22T11:08:45;6.60;;;2.55;;
45198;SDS011;30941;46.422;18.772;2022-07-22T11:11:12;3.25;;;1.80;;
45198;SDS011;30941;46.422;18.772;2022-07-22T11:13:39;2.40;;;2.10;;
45198;SDS011;30941;46.422;18.772;2022-07-22T11:18:48;3.90;;;2.05;;
45198;SDS011;30941;46.422;18.772;2022-07-22T11:21:21;3.25;;;2.15;;
45198;SDS011;30941;46.422;18.772;2022-07-22T11:23:48;2.53;;;2.05;;
45198;SDS011;30941;46.422;18.772;2022-07-22T11:26:18;4.07;;;2.10;;
45198;SDS011;30941;46.422;18.772;2022-07-22T11:28:51;2.63;;;2.00;;
45198;SDS011;30941;46.422;18.772;2022-07-22T11:31:17;3.20;;;2.08;;
45198;SDS011;30941;46.422;18.772;2022-07-22T11:33:44;3.63;;;1.95;;
45198;SDS011;30941;46.422;18.772;2022-07-22T11:36:10;2.90;;;2.10;;
45198;SDS011;30941;46.422;18.772;2022-07-22T11:38:43;6.00;;;2.40;;
45198;SDS011;30941;46.422;18.772;2022-07-22T11:41:15;4.18;;;2.30;;
45198;SDS011;30941;46.422;18.772;2022-07-22T11:43:43;3.42;;;2.13;;
45198;SDS011;30941;46.422;18.772;2022-07-22T11:46:11;4.85;;;2.25;;
45198;SDS011;30941;46.422;18.772;2022-07-22T11:48:37;4.25;;;2.40;;
45198;SDS011;30941;46.422;18.772;2022-07-22T11:51:03;4.38;;;2.10;;
45198;SDS011;30941;46.422;18.772;2022-07-22T11:53:32;4.85;;;2.42;;
45198;SDS011;30941;46.422;18.772;2022-07-22T11:55:59;3.25;;;1.98;;
45198;SDS011;30941;46.422;18.772;2022-07-22T12:01:00;6.63;;;2.17;;
45198;SDS011;30941;46.422;18.772;2022-07-22T12:03:26;3.05;;;2.05;;
45198;SDS011;30941;46.422;18.772;2022-07-22T12:05:52;6.75;;;2.33;;
45198;SDS011;30941;46.422;18.772;2022-07-22T12:08:18;6.53;;;2.20;;
45198;SDS011;30941;46.422;18.772;2022-07-22T12:10:43;4.47;;;2.95;;
45198;SDS011;30941;46.422;18.772;2022-07-22T12:13:12;4.97;;;2.30;;
45198;SDS011;30941;46.422;18.772;2022-07-22T12:15:38;4.88;;;2.15;;
45198;SDS011;30941;46.422;18.772;2022-07-22T12:18:17;4.20;;;2.38;;
45198;SDS011;30941;46.422;18.772;2022-07-22T12:20:46;5.80;;;2.38;;
45198;SDS011;30941;46.422;18.772;2022-07-22T12:23:11;3.58;;;2.40;;
45198;SDS011;30941;46.422;18.772;2022-07-22T12:25:53;5.05;;;2.40;;
45198;SDS011;30941;46.422;18.772;2022-07-22T12:28:19;3.72;;;2.00;;
45198;SDS011;30941;46.422;18.772;2022-07-22T12:30:44;6.57;;;2.58;;
45198;SDS011;30941;46.422;18.772;2022-07-22T12:33:14;6.22;;;2.50;;
45198;SDS011;30941;46.422;18.772;2022-07-22T12:35:40;5.05;;;2.30;;
45198;SDS011;30941;46.422;18.772;2022-07-22T12:38:09;3.85;;;2.10;;
45198;SDS011;30941;46.422;18.772;2022-07-22T12:40:35;5.55;;;2.80;;
45198;SDS011;30941;46.422;18.772;2022-07-22T12:43:03;5.55;;;2.53;;
45198;SDS011;30941;46.422;18.772;2022-07-22T12:45:29;3.83;;;2.30;;
45198;SDS011;30941;46.422;18.772;2022-07-22T12:50:41;4.88;;;2.50;;
45198;SDS011;30941;46.422;18.772;2022-07-22T12:53:27;4.40;;;1.90;;
45198;SDS011;30941;46.422;18.772;2022-07-22T12:55:55;5.03;;;2.53;;
45198;SDS011;30941;46.422;18.772;2022-07-22T12:58:23;5.07;;;2.40;;
45198;SDS011;30941;46.422;18.772;2022-07-22T13:00:50;4.15;;;2.20;;
45198;SDS011;30941;46.422;18.772;2022-07-22T13:03:18;7.70;;;3.05;;
45198;SDS011;30941;46.422;18.772;2022-07-22T13:05:48;4.93;;;2.33;;
45198;SDS011;30941;46.422;18.772;2022-07-22T13:08:14;6.57;;;2.58;;
45198;SDS011;30941;46.422;18.772;2022-07-22T13:10:40;6.45;;;2.83;;
45198;SDS011;30941;46.422;18.772;2022-07-22T13:13:05;3.92;;;2.03;;
45198;SDS011;30941;46.422;18.772;2022-07-22T13:15:31;9.48;;;2.55;;
45198;SDS011;30941;46.422;18.772;2022-07-22T13:17:57;7.95;;;2.70;;
45198;SDS011;30941;46.422;18.772;2022-07-22T13:20:22;6.40;;;2.58;;
45198;SDS011;30941;46.422;18.772;2022-07-22T13:22:48;4.20;;;2.30;;
45198;SDS011;30941;46.422;18.772;2022-07-22T13:25:13;5.63;;;2.30;;
45198;SDS011;30941;46.422;18.772;2022-07-22T13:27:39;5.45;;;2.60;;
45198;SDS011;30941;46.422;18.772;2022-07-22T13:30:05;4.22;;;2.25;;
45198;SDS011;30941;46.422;18.772;2022-07-22T13:32:32;5.38;;;2.35;;
45198;SDS011;30941;46.422;18.772;2022-07-22T13:34:57;4.80;;;2.20;;
45198;SDS011;30941;46.422;18.772;2022-07-22T13:37:23;4.35;;;2.40;;
45198;SDS011;30941;46.422;18.772;2022-07-22T13:39:48;4.20;;;2.67;;
45198;SDS011;30941;46.422;18.772;2022-07-22T13:42:15;5.90;;;2.42;;
45198;SDS011;30941;46.422;18.772;2022-07-22T13:44:47;7.03;;;2.85;;
45198;SDS011;30941;46.422;18.772;2022-07-22T13:47:13;4.65;;;2.85;;
45198;SDS011;30941;46.422;18.772;2022-07-22T13:49:39;5.18;;;2.83;;
45198;SDS011;30941;46.422;18.772;2022-07-22T13:52:04;4.97;;;2.70;;
45198;SDS011;30941;46.422;18.772;2022-07-22T13:54:30;5.07;;;2.40;;
45198;SDS011;30941;46.422;18.772;2022-07-22T13:56:56;7.20;;;2.60;;
45198;SDS011;30941;46.422;18.772;2022-07-22T13:59:22;6.00;;;2.47;;
45198;SDS011;30941;46.422;18.772;2022-07-22T14:01:48;6.85;;;2.67;;
45198;SDS011;30941;46.422;18.772;2022-07-22T14:04:13;4.55;;;2.55;;
45198;SDS011;30941;46.422;18.772;2022-07-22T14:06:39;4.40;;;2.25;;
45198;SDS011;30941;46.422;18.772;2022-07-22T14:09:04;2.92;;;2.05;;
45198;SDS011;30941;46.422;18.772;2022-07-22T14:11:30;4.97;;;2.35;;
45198;SDS011;30941;46.422;18.772;2022-07-22T14:13:55;6.45;;;2.30;;
45198;SDS011;30941;46.422;18.772;2022-07-22T14:16:21;5.18;;;2.50;;
45198;SDS011;30941;46.422;18.772;2022-07-22T14:18:58;3.40;;;2.40;;
45198;SDS011;30941;46.422;18.772;2022-07-22T14:21:24;19.67;;;2.85;;
45198;SDS011;30941;46.422;18.772;2022-07-22T14:23:49;5.40;;;3.45;;
45198;SDS011;30941;46.422;18.772;2022-07-22T14:26:15;6.85;;;2.65;;
45198;SDS011;30941;46.422;18.772;2022-07-22T14:28:40;5.35;;;2.30;;
45198;SDS011;30941;46.422;18.772;2022-07-22T14:31:06;4.03;;;2.53;;
45198;SDS011;30941;46.422;18.772;2022-07-22T14:33:31;5.72;;;2.92;;
45198;SDS011;30941;46.422;18.772;2022-07-22T14:35:56;5.90;;;2.40;;
45198;SDS011;30941;46.422;18.772;2022-07-22T14:38:22;5.85;;;2.63;;
45198;SDS011;30941;46.422;18.772;2022-07-22T14:40:47;5.45;;;2.95;;
45198;SDS011;30941;46.422;18.772;2022-07-22T14:43:13;7.03;;;2.90;;
45198;SDS011;30941;46.422;18.772;2022-07-22T14:45:38;7.85;;;2.65;;
45198;SDS011;30941;46.422;18.772;2022-07-22T14:48:04;7.88;;;2.70;;
45198;SDS011;30941;46.422;18.772;2022-07-22T14:50:30;5.07;;;2.92;;
45198;SDS011;30941;46.422;18.772;2022-07-22T14:52:55;4.68;;;2.70;;
45198;SDS011;30941;46.422;18.772;2022-07-22T14:55:21;6.82;;;2.65;;